Time;durP1;ratioP1;P1;durP2;ratioP2;P2;SDS_P1;SDS_P2;PMS_P1;PMS_P2;Temp;Humidity;BMP_temperature;BMP_pressure;BME280_temperature;BME280_humidity;BME280_pressure;Samples;Min_cycle;Max_cycle;Signal;HPM_P1;HPM_P2
2022/08/17 00:12:21;;;;;;;;;;;;;;;24.45;49.27;99164.25;4929412;27;19995;-66
2022/08/17 00:15:09;;;;;;;;;;;;;;;24.49;49.21;99159.62;4355924;32;34264;-76
2022/08/17 00:17:36;;;;;;;;;;;;;;;24.56;48.84;99154.28;4367548;32;35175;-65
2022/08/17 00:20:04;;;;;;;;;;;;;;;24.44;49.03;99162.66;4378832;32;34473;-69
2022/08/17 00:22:31;;;;;;;;;;;;;;;24.25;49.64;99164.13;4365802;32;34455;-66
2022/08/17 00:25:14;;;;;;;;;;;;;;;24.26;49.59;99159.41;4364209;32;34351;-66
2022/08/17 00:27:42;;;;;;;;;;;;;;;24.28;49.46;99168.97;4350657;32;34910;-66
2022/08/17 00:30:09;;;;;;;;;;;;;;;24.16;49.79;99164.28;4364299;32;34466;-65
2022/08/17 00:32:38;;;;;;;;;;;;;;;24.10;49.96;99165.72;4350525;32;34998;-82
2022/08/17 00:35:26;;;;;;;;;;;;;;;24.08;49.94;99158.91;4352952;32;33582;-66
2022/08/17 00:37:54;;;;;;;;;;;;;;;24.12;49.77;99163.37;4363846;32;34122;-67
2022/08/17 00:40:21;;;;;;;;;;;;;;;24.01;50.23;99161.50;4364109;32;34342;-66
2022/08/17 00:42:52;;;;;;;;;;;;;;;23.91;50.57;99155.31;4364046;32;34265;-83
2022/08/17 00:45:19;;;;;;;;;;;;;;;23.97;50.53;99166.12;4363863;32;33472;-66
2022/08/17 00:47:46;;;;;;;;;;;;;;;23.89;50.53;99165.94;4363923;32;35167;-83
2022/08/17 00:50:14;;;;;;;;;;;;;;;23.70;50.48;99166.53;4363976;32;34371;-65
2022/08/17 00:52:48;;;;;;;;;;;;;;;23.70;50.27;99168.50;4363562;32;35051;-68
2022/08/17 00:55:17;;;;;;;;;;;;;;;23.58;50.71;99172.09;4350805;32;33545;-65
2022/08/17 00:57:45;;;;;;;;;;;;;;;23.59;50.67;99165.41;4363837;32;34962;-66
2022/08/17 01:00:33;;;;;;;;;;;;;;;23.61;50.59;99162.31;4350485;32;34995;-66
2022/08/17 01:03:06;;;;;;;;;;;;;;;23.65;50.37;99171.50;4363780;32;34361;-67
2022/08/17 01:05:37;;;;;;;;;;;;;;;23.17;51.70;99173.22;4350499;32;34788;-66
2022/08/17 01:08:10;;;;;;;;;;;;;;;23.45;51.16;99168.56;4363780;32;34388;-66
2022/08/17 01:10:41;;;;;;;;;;;;;;;23.30;51.60;99172.88;4350263;32;34455;-67
2022/08/17 01:13:41;;;;;;;;;;;;;;;23.64;50.77;99178.22;4363710;32;34159;-65
2022/08/17 01:16:16;;;;;;;;;;;;;;;23.52;51.02;99182.62;4364394;32;34321;-66
2022/08/17 01:18:44;;;;;;;;;;;;;;;23.64;50.82;99184.56;4350528;32;34346;-65
2022/08/17 01:21:19;;;;;;;;;;;;;;;23.73;50.36;99189.94;4363869;32;34025;-82
2022/08/17 01:23:46;;;;;;;;;;;;;;;23.88;49.93;99189.25;4350485;32;33666;-66
2022/08/17 01:26:13;;;;;;;;;;;;;;;23.77;50.44;99187.31;4363576;32;34380;-66
2022/08/17 01:28:41;;;;;;;;;;;;;;;23.56;51.19;99185.50;4350302;32;34313;-65
2022/08/17 01:31:23;;;;;;;;;;;;;;;23.49;51.33;99179.75;4363865;32;35455;-82
2022/08/17 01:33:50;;;;;;;;;;;;;;;23.12;52.33;99180.59;4350378;32;34654;-66
2022/08/17 01:36:17;;;;;;;;;;;;;;;23.13;52.23;99192.47;4363686;32;33545;-66
2022/08/17 01:38:45;;;;;;;;;;;;;;;23.56;51.29;99185.50;4363544;32;33940;-69
2022/08/17 01:41:12;;;;;;;;;;;;;;;23.13;52.23;99185.00;4363831;32;34223;-66
2022/08/17 01:43:44;;;;;;;;;;;;;;;22.98;52.60;99190.34;4350532;32;34158;-68
2022/08/17 01:46:17;;;;;;;;;;;;;;;23.24;52.14;99199.16;4350039;32;33448;-68
2022/08/17 01:48:46;;;;;;;;;;;;;;;23.45;51.60;99189.91;4363847;32;34291;-65
2022/08/17 01:51:14;;;;;;;;;;;;;;;23.22;52.31;99193.16;4362899;32;35234;-66
2022/08/17 01:53:44;;;;;;;;;;;;;;;23.38;51.84;99200.75;4363416;32;34168;-82
2022/08/17 01:56:12;;;;;;;;;;;;;;;23.39;51.77;99192.13;4350251;32;34367;-65
2022/08/17 01:58:40;;;;;;;;;;;;;;;23.40;51.84;99195.69;4350134;32;34349;-65
2022/08/17 02:01:08;;;;;;;;;;;;;;;23.39;51.78;99185.75;4363202;32;34575;-65
2022/08/17 02:03:36;;;;;;;;;;;;;;;23.44;51.48;99193.84;4363459;32;34801;-81
2022/08/17 02:06:04;;;;;;;;;;;;;;;23.38;51.51;99192.47;4363543;32;33590;-66
2022/08/17 02:08:52;;;;;;;;;;;;;;;23.21;52.08;99191.53;4363442;32;34260;-65
2022/08/17 02:11:30;;;;;;;;;;;;;;;22.88;52.83;99184.13;4363214;32;35278;-69
2022/08/17 02:13:59;;;;;;;;;;;;;;;23.23;52.00;99186.47;4363234;32;35094;-82
2022/08/17 02:16:34;;;;;;;;;;;;;;;23.27;51.81;99187.38;4363576;32;33230;-66
2022/08/17 02:19:11;;;;;;;;;;;;;;;23.25;51.92;99183.38;4363109;32;35005;-66
2022/08/17 02:21:39;;;;;;;;;;;;;;;23.27;51.77;99181.06;4363345;32;35393;-82
2022/08/17 02:24:07;;;;;;;;;;;;;;;23.24;51.74;99181.72;4363113;32;34309;-65
2022/08/17 02:26:34;;;;;;;;;;;;;;;22.89;52.67;99173.88;4349749;32;34382;-65
2022/08/17 02:29:02;;;;;;;;;;;;;;;22.84;53.18;99179.66;4363450;32;34352;-65
2022/08/17 02:31:30;;;;;;;;;;;;;;;22.57;53.63;99179.16;4363021;32;34378;-67
2022/08/17 02:33:57;;;;;;;;;;;;;;;22.67;53.50;99177.91;4363273;32;35037;-66
2022/08/17 02:36:34;;;;;;;;;;;;;;;22.90;52.75;99179.06;4363208;32;33478;-66
2022/08/17 02:39:03;;;;;;;;;;;;;;;23.06;52.36;99183.94;4362828;32;34344;-65
2022/08/17 02:41:30;;;;;;;;;;;;;;;23.07;52.34;99183.59;4363026;32;35306;-65
2022/08/17 02:43:57;;;;;;;;;;;;;;;22.93;52.71;99185.87;4363196;32;34128;-68
2022/08/17 02:46:24;;;;;;;;;;;;;;;22.53;53.75;99173.50;4362838;32;34364;-67
2022/08/17 02:48:52;;;;;;;;;;;;;;;22.40;54.17;99177.41;4363125;32;34249;-65
2022/08/17 02:51:19;;;;;;;;;;;;;;;22.49;53.88;99175.34;4363017;32;34299;-66
2022/08/17 02:53:46;;;;;;;;;;;;;;;22.71;53.47;99181.59;4362748;32;35043;-73
2022/08/17 02:56:13;;;;;;;;;;;;;;;22.41;54.26;99173.47;4363300;32;33781;-83
2022/08/17 02:58:41;;;;;;;;;;;;;;;22.44;54.15;99175.56;4362889;32;35073;-83
2022/08/17 03:01:09;;;;;;;;;;;;;;;22.71;53.45;99185.16;4362747;32;34300;-65
2022/08/17 03:03:36;;;;;;;;;;;;;;;22.79;53.18;99188.97;4364477;32;34905;-66
2022/08/17 03:06:04;;;;;;;;;;;;;;;22.71;53.44;99185.16;4351688;32;34274;-68
2022/08/17 03:08:31;;;;;;;;;;;;;;;22.84;53.24;99188.75;4364340;32;33880;-66
2022/08/17 03:10:58;;;;;;;;;;;;;;;22.82;53.42;99191.03;4364574;32;34441;-66
2022/08/17 03:13:26;;;;;;;;;;;;;;;22.68;53.75;99185.84;4364436;32;34144;-66
2022/08/17 03:15:53;;;;;;;;;;;;;;;22.71;53.72;99190.69;4364705;32;33585;-65
2022/08/17 03:18:21;;;;;;;;;;;;;;;22.58;54.17;99188.25;4364633;32;34087;-82
2022/08/17 03:20:53;;;;;;;;;;;;;;;22.58;54.13;99197.34;4364392;32;35277;-66
2022/08/17 03:23:21;;;;;;;;;;;;;;;22.26;55.00;99194.25;4364633;32;34395;-68
2022/08/17 03:25:50;;;;;;;;;;;;;;;22.41;54.74;99184.53;4364645;32;33859;-66
2022/08/17 03:28:20;;;;;;;;;;;;;;;22.38;54.89;99187.97;4364331;32;34350;-66
2022/08/17 03:30:47;;;;;;;;;;;;;;;22.34;55.10;99192.56;4364763;32;34226;-67
2022/08/17 03:33:15;;;;;;;;;;;;;;;22.24;55.51;99191.03;4364464;32;34370;-66
2022/08/17 03:35:43;;;;;;;;;;;;;;;22.33;55.37;99190.94;4364308;32;33936;-65
2022/08/17 03:38:10;;;;;;;;;;;;;;;22.43;54.97;99190.50;4364654;32;34315;-65
2022/08/17 03:40:38;;;;;;;;;;;;;;;22.39;55.04;99189.59;4351182;32;34423;-82
2022/08/17 03:43:26;;;;;;;;;;;;;;;22.41;55.15;99194.78;4364416;32;35252;-66
2022/08/17 03:57:17;;;;;;;;;;;;;;;22.21;55.98;99208.28;4364342;32;34357;-65
2022/08/17 03:59:45;;;;;;;;;;;;;;;21.88;56.72;99208.25;4364320;32;34097;-68
2022/08/17 04:02:27;;;;;;;;;;;;;;;22.20;55.81;99206.66;4351209;32;34550;-69
2022/08/17 04:04:55;;;;;;;;;;;;;;;22.35;55.45;99210.75;4350972;32;34271;-65
2022/08/17 04:07:23;;;;;;;;;;;;;;;22.38;55.45;99207.31;4364062;32;33260;-82
2022/08/17 04:09:51;;;;;;;;;;;;;;;22.56;54.90;99210.72;4364209;32;34111;-82
2022/08/17 04:12:19;;;;;;;;;;;;;;;22.61;54.88;99209.69;4363842;32;35359;-65
2022/08/17 04:14:46;;;;;;;;;;;;;;;22.71;54.72;99220.31;4350340;32;34322;-66
2022/08/17 04:17:21;;;;;;;;;;;;;;;22.61;55.02;99221.53;4364640;32;33384;-65
2022/08/17 04:19:48;;;;;;;;;;;;;;;22.77;54.81;99221.69;4364158;32;34035;-65
2022/08/17 04:22:15;;;;;;;;;;;;;;;22.87;54.65;99220.44;4364166;32;34384;-65
2022/08/17 04:25:08;;;;;;;;;;;;;;;23.00;54.50;99219.34;4364519;32;34013;-68
2022/08/17 04:27:35;;;;;;;;;;;;;;;22.99;55.37;99225.19;4350612;32;34205;-65
2022/08/17 04:30:05;;;;;;;;;;;;;;;23.30;54.61;99225.47;4364149;32;34440;-65
2022/08/17 04:32:48;;;;;;;;;;;;;;;23.63;53.82;99232.81;4364132;32;35395;-66
2022/08/17 04:35:42;;;;;;;;;;;;;;;23.84;53.23;99232.66;4364160;32;34166;-65
2022/08/17 04:38:11;;;;;;;;;;;;;;;24.14;52.33;99229.56;4350708;32;34159;-83
2022/08/17 04:43:25;;;;;;;;;;;;;;;24.58;50.90;99228.78;4364273;32;35250;-66
2022/08/17 04:45:54;;;;;;;;;;;;;;;24.81;50.36;99231.78;4364017;32;34332;-68
2022/08/17 04:48:27;;;;;;;;;;;;;;;25.03;49.76;99227.56;4350581;32;34244;-69
2022/08/17 04:51:03;;;;;;;;;;;;;;;25.12;49.65;99231.00;4363974;32;34897;-65
2022/08/17 04:53:30;;;;;;;;;;;;;;;24.92;50.61;99232.84;4363900;32;34276;-66
2022/08/17 04:55:57;;;;;;;;;;;;;;;24.85;50.12;99241.81;4364016;32;35132;-82
2022/08/17 04:58:25;;;;;;;;;;;;;;;25.24;49.84;99241.22;4363937;32;34218;-82
2022/08/17 05:00:52;;;;;;;;;;;;;;;25.38;49.42;99236.81;4363771;32;34139;-66
2022/08/17 05:03:19;;;;;;;;;;;;;;;25.30;48.82;99237.00;4363791;32;34326;-66
2022/08/17 05:05:48;;;;;;;;;;;;;;;25.17;50.06;99245.41;4363863;32;34348;-66
2022/08/17 05:08:17;;;;;;;;;;;;;;;25.57;48.00;99243.56;4363799;32;33611;-66
2022/08/17 05:10:44;;;;;;;;;;;;;;;25.67;47.86;99248.56;4363757;32;35222;-70
2022/08/17 05:13:17;;;;;;;;;;;;;;;25.85;48.43;99257.28;4363616;32;35230;-66
2022/08/17 05:15:45;;;;;;;;;;;;;;;26.36;47.17;99262.78;4363832;32;34980;-67
2022/08/17 05:18:14;;;;;;;;;;;;;;;27.12;45.07;99261.41;4363883;32;33220;-66
2022/08/17 05:20:41;;;;;;;;;;;;;;;27.62;44.11;99265.81;4363726;32;34979;-66
2022/08/17 05:23:10;;;;;;;;;;;;;;;27.64;44.19;99259.84;4363844;32;34579;-66
2022/08/17 05:25:39;;;;;;;;;;;;;;;27.76;43.01;99262.44;4349574;32;35114;-69
2022/08/17 05:28:07;;;;;;;;;;;;;;;27.93;42.28;99255.53;4350381;32;34227;-66
2022/08/17 05:30:36;;;;;;;;;;;;;;;27.75;43.09;99260.84;4363518;32;34374;-82
2022/08/17 05:33:05;;;;;;;;;;;;;;;27.31;43.43;99260.56;4350088;32;34595;-66
2022/08/17 05:35:34;;;;;;;;;;;;;;;27.39;43.62;99259.50;4363763;32;34091;-69
2022/08/17 05:38:01;;;;;;;;;;;;;;;27.69;43.88;99261.50;4363563;32;33979;-74
2022/08/17 05:40:28;;;;;;;;;;;;;;;27.75;42.93;99262.78;4363607;32;34989;-66
2022/08/17 05:43:11;;;;;;;;;;;;;;;27.31;45.33;99258.56;4363636;32;35255;-69
2022/08/17 05:45:39;;;;;;;;;;;;;;;27.76;44.35;99265.22;4363669;32;34419;-70
2022/08/17 05:48:23;;;;;;;;;;;;;;;27.94;43.47;99267.47;4351727;32;34019;-66
2022/08/17 05:51:09;;;;;;;;;;;;;;;27.95;43.55;99267.09;4363545;32;35238;-66
2022/08/17 05:53:38;;;;;;;;;;;;;;;28.49;42.39;99272.56;4363309;32;35348;-70
2022/08/17 05:56:10;;;;;;;;;;;;;;;28.48;42.59;99274.53;4350643;32;34056;-69
2022/08/17 05:59:10;;;;;;;;;;;;;;;28.90;41.65;99267.00;4351871;32;33335;-66
2022/08/17 06:01:52;;;;;;;;;;;;;;;28.91;40.96;99275.00;4350210;32;34290;-66
2022/08/17 06:04:25;;;;;;;;;;;;;;;28.74;42.04;99268.03;4350104;32;34155;-67
2022/08/17 06:06:52;;;;;;;;;;;;;;;28.71;40.39;99268.81;4350274;32;34687;-75
2022/08/17 06:09:26;;;;;;;;;;;;;;;28.79;40.99;99273.31;4363219;32;33603;-68
2022/08/17 06:12:32;;;;;;;;;;;;;;;29.12;40.21;99268.06;4350343;32;34167;-66
2022/08/17 06:15:15;;;;;;;;;;;;;;;29.80;38.68;99265.75;4326600;32;34152;-72
2022/08/17 06:17:42;;;;;;;;;;;;;;;29.81;39.16;99265.38;4363761;32;34290;-75
2022/08/17 06:20:11;;;;;;;;;;;;;;;29.99;38.10;99267.47;4363358;32;33182;-76
2022/08/17 06:22:43;;;;;;;;;;;;;;;29.97;39.04;99267.06;4363491;32;33814;-66
2022/08/17 06:25:18;;;;;;;;;;;;;;;30.17;38.53;99271.16;4349861;32;34316;-79
2022/08/17 06:27:49;;;;;;;;;;;;;;;30.74;38.27;99269.78;4349976;32;34982;-72
2022/08/17 06:30:21;;;;;;;;;;;;;;;31.20;37.06;99267.03;4350197;32;34131;-73
2022/08/17 06:32:48;;;;;;;;;;;;;;;31.44;36.94;99267.44;4363260;32;33894;-66
2022/08/17 06:35:29;;;;;;;;;;;;;;;32.02;35.88;99266.16;4350115;32;34428;-79
2022/08/17 06:38:03;;;;;;;;;;;;;;;32.41;35.04;99276.41;4362937;32;34229;-67
2022/08/17 06:40:35;;;;;;;;;;;;;;;32.79;34.37;99287.88;4363141;32;33560;-68
2022/08/17 06:43:16;;;;;;;;;;;;;;;32.86;34.30;99279.41;4349429;32;34542;-69
2022/08/17 06:45:53;;;;;;;;;;;;;;;32.80;34.36;99288.66;4349769;32;35197;-67
2022/08/17 06:48:24;;;;;;;;;;;;;;;32.21;35.06;99287.34;4349636;32;34071;-77
2022/08/17 06:51:11;;;;;;;;;;;;;;;31.77;36.74;99290.63;4362969;32;34224;-71
2022/08/17 06:53:43;;;;;;;;;;;;;;;31.40;35.71;99294.66;4362886;32;34250;-66
2022/08/17 06:56:12;;;;;;;;;;;;;;;31.50;35.43;99288.28;4362915;32;34474;-73
2022/08/17 06:58:40;;;;;;;;;;;;;;;30.89;37.40;99287.41;4363001;32;34967;-76
2022/08/17 07:01:13;;;;;;;;;;;;;;;30.62;38.31;99288.53;4349562;32;33461;-66
2022/08/17 07:04:17;;;;;;;;;;;;;;;30.79;38.25;99298.16;4349557;32;34344;-66
2022/08/17 07:06:51;;;;;;;;;;;;;;;31.17;37.33;99293.06;4316178;33;35217;-76
2022/08/17 07:09:22;;;;;;;;;;;;;;;30.86;38.47;99284.22;4344902;32;34251;-65
2022/08/17 07:11:58;;;;;;;;;;;;;;;30.70;38.24;99280.94;4362456;32;33237;-71
2022/08/17 07:14:51;;;;;;;;;;;;;;;29.35;40.21;99288.22;4349448;32;34786;-75
2022/08/17 07:17:19;;;;;;;;;;;;;;;30.12;39.08;99287.50;4360713;32;35302;-66
2022/08/17 07:20:11;;;;;;;;;;;;;;;29.87;39.15;99285.41;4351319;32;34660;-66
2022/08/17 07:22:41;;;;;;;;;;;;;;;30.16;37.98;99288.34;4362589;32;34224;-66
2022/08/17 07:25:26;;;;;;;;;;;;;;;30.23;37.44;99289.16;4351107;32;34059;-68
2022/08/17 07:27:55;;;;;;;;;;;;;;;30.91;37.87;99291.44;4362514;32;34203;-73
2022/08/17 07:30:23;;;;;;;;;;;;;;;31.22;36.05;99291.84;4362386;32;34856;-66
2022/08/17 07:32:52;;;;;;;;;;;;;;;31.58;35.96;99287.06;4362335;32;33474;-80
2022/08/17 07:35:21;;;;;;;;;;;;;;;32.24;34.41;99288.53;4348904;32;34399;-65
2022/08/17 07:38:27;;;;;;;;;;;;;;;32.47;34.33;99288.03;4362219;32;34364;-70
2022/08/17 07:41:04;;;;;;;;;;;;;;;31.72;35.64;99288.25;4344816;32;34980;-66
2022/08/17 07:43:37;;;;;;;;;;;;;;;32.28;33.44;99292.13;4362318;32;34070;-72
2022/08/17 07:49:14;;;;;;;;;;;;;;;32.86;33.90;99285.00;4363544;32;34354;-68
2022/08/17 07:51:42;;;;;;;;;;;;;;;32.74;34.11;99293.91;4364382;32;34887;-66
2022/08/17 07:54:21;;;;;;;;;;;;;;;33.24;31.91;99292.78;4351166;32;34189;-67
2022/08/17 07:56:48;;;;;;;;;;;;;;;33.62;30.59;99295.72;4364176;32;34193;-68
2022/08/17 07:59:23;;;;;;;;;;;;;;;33.65;30.81;99294.88;4364218;32;34480;-76
2022/08/17 08:01:53;;;;;;;;;;;;;;;33.31;30.73;99292.75;4351283;32;33933;-66
2022/08/17 08:04:35;;;;;;;;;;;;;;;33.44;31.56;99298.66;4364371;32;33532;-77
2022/08/17 08:07:24;;;;;;;;;;;;;;;32.53;32.13;99296.84;4353194;32;33580;-66
2022/08/17 08:09:57;;;;;;;;;;;;;;;33.04;32.09;99295.34;4350943;32;35261;-82
2022/08/17 08:12:32;;;;;;;;;;;;;;;33.37;31.13;99296.72;4363640;32;34201;-66
2022/08/17 08:15:00;;;;;;;;;;;;;;;33.57;30.51;99290.53;4364305;32;34259;-74
2022/08/17 08:17:34;;;;;;;;;;;;;;;33.85;29.30;99290.25;4364222;32;34522;-70
2022/08/17 08:20:04;;;;;;;;;;;;;;;33.61;30.41;99286.47;4363998;32;35429;-76
2022/08/17 08:23:06;;;;;;;;;;;;;;;33.26;31.36;99288.38;4364088;32;34202;-77
2022/08/17 08:25:50;;;;;;;;;;;;;;;33.48;30.77;99296.62;4364107;32;34214;-66
2022/08/17 08:28:37;;;;;;;;;;;;;;;33.63;31.18;99288.84;4363942;32;35190;-77
2022/08/17 08:31:20;;;;;;;;;;;;;;;34.10;28.79;99287.16;4364068;32;34587;-66
2022/08/17 08:33:47;;;;;;;;;;;;;;;32.93;30.55;99281.34;4364143;32;33796;-67
2022/08/17 08:36:15;;;;;;;;;;;;;;;33.53;29.95;99286.94;4364531;32;33215;-71
2022/08/17 08:39:07;;;;;;;;;;;;;;;33.44;32.13;99295.84;4363868;32;35056;-67
2022/08/17 08:41:37;;;;;;;;;;;;;;;33.59;30.16;99293.72;4350536;32;34721;-66
2022/08/17 08:44:17;;;;;;;;;;;;;;;33.34;29.28;99288.31;4350757;32;35158;-66
2022/08/17 08:47:07;;;;;;;;;;;;;;;33.83;28.81;99289.09;4364112;32;34144;-65
2022/08/17 08:49:41;;;;;;;;;;;;;;;33.97;28.32;99294.53;4342856;32;33724;-66
2022/08/17 08:52:29;;;;;;;;;;;;;;;33.93;27.81;99285.31;4363669;32;35357;-79
2022/08/17 08:54:59;;;;;;;;;;;;;;;34.29;27.89;99285.75;4363972;32;35035;-71
2022/08/17 08:57:30;;;;;;;;;;;;;;;34.30;27.82;99287.34;4350423;32;33370;-73
2022/08/17 09:00:05;;;;;;;;;;;;;;;34.09;28.55;99281.94;4362630;32;35215;-69
2022/08/17 09:02:32;;;;;;;;;;;;;;;34.24;28.83;99285.44;4350481;32;35223;-77
2022/08/17 09:05:20;;;;;;;;;;;;;;;33.27;28.44;99286.34;4363996;32;34752;-77
2022/08/17 09:07:54;;;;;;;;;;;;;;;32.83;27.96;99282.22;4350465;32;33233;-73
2022/08/17 09:10:30;;;;;;;;;;;;;;;33.51;27.48;99290.16;4350597;32;35143;-72
2022/08/17 09:13:14;;;;;;;;;;;;;;;34.14;25.97;99278.69;4363505;32;34250;-82
2022/08/17 09:15:44;;;;;;;;;;;;;;;34.16;26.55;99293.16;4350369;32;34167;-66
2022/08/17 09:18:14;;;;;;;;;;;;;;;33.69;26.61;99293.66;4350561;32;33487;-67
2022/08/17 09:21:03;;;;;;;;;;;;;;;34.08;26.22;99291.59;4363428;32;33960;-66
2022/08/17 09:23:41;;;;;;;;;;;;;;;33.41;28.23;99289.03;4350501;32;34479;-71
2022/08/17 09:26:11;;;;;;;;;;;;;;;33.99;27.69;99289.28;4350359;32;35104;-72
2022/08/17 09:28:39;;;;;;;;;;;;;;;34.30;27.79;99297.81;4363918;32;33213;-66
2022/08/17 09:31:10;;;;;;;;;;;;;;;34.39;27.90;99286.03;4363644;32;34312;-81
2022/08/17 09:33:42;;;;;;;;;;;;;;;34.09;27.11;99290.41;4350091;32;33830;-69
2022/08/17 09:36:24;;;;;;;;;;;;;;;34.65;26.94;99290.16;4363790;32;35098;-68
2022/08/17 09:39:02;;;;;;;;;;;;;;;34.91;27.54;99289.34;4363560;32;33376;-66
2022/08/17 09:41:36;;;;;;;;;;;;;;;34.57;25.91;99286.59;4350359;32;34344;-66
2022/08/17 09:44:13;;;;;;;;;;;;;;;35.03;25.05;99287.16;4363381;32;35407;-70
2022/08/17 09:46:51;;;;;;;;;;;;;;;35.37;25.36;99283.41;4363801;32;34840;-80
2022/08/17 09:49:25;;;;;;;;;;;;;;;34.81;26.28;99273.38;4363976;32;33600;-68
2022/08/17 09:52:02;;;;;;;;;;;;;;;35.16;26.00;99281.75;4363712;32;34041;-76
2022/08/17 09:54:31;;;;;;;;;;;;;;;35.35;24.56;99278.19;4350109;32;34250;-67
2022/08/17 09:57:06;;;;;;;;;;;;;;;35.40;24.08;99274.09;4350973;32;34298;-66
2022/08/17 10:03:04;;;;;;;;;;;;;;;35.70;23.96;99274.00;4349922;32;33620;-67
2022/08/17 10:05:50;;;;;;;;;;;;;;;35.36;24.01;99282.63;4350064;32;35295;-70
2022/08/17 10:08:43;;;;;;;;;;;;;;;35.51;24.43;99283.19;4363417;32;34346;-66
2022/08/17 10:12:14;;;;;;;;;;;;;;;35.48;24.19;99284.81;4349545;32;33593;-74
2022/08/17 10:14:23;;;;;;;;;;;;;;;35.42;24.43;99280.91;4363373;32;33904;-71
2022/08/17 10:17:04;;;;;;;;;;;;;;;35.49;24.31;99277.16;4363478;32;35272;-71
2022/08/17 10:19:31;;;;;;;;;;;;;;;35.82;24.61;99288.69;4363271;32;34138;-69
2022/08/17 10:28:00;;;;;;;;;;;;;;;36.07;23.42;99277.69;4352922;32;35265;-79
2022/08/17 10:30:28;;;;;;;;;;;;;;;36.11;23.68;99278.44;4349798;32;34202;-79
2022/08/17 10:32:56;;;;;;;;;;;;;;;36.33;23.15;99275.19;4349723;32;34175;-72
2022/08/17 10:35:35;;;;;;;;;;;;;;;36.48;23.10;99270.00;4363163;32;34845;-74
2022/08/17 10:38:22;;;;;;;;;;;;;;;35.00;24.35;99271.09;4363409;32;35286;-67
2022/08/17 10:40:56;;;;;;;;;;;;;;;35.39;24.24;99267.66;4363392;32;34426;-71
2022/08/17 10:43:33;;;;;;;;;;;;;;;35.66;24.33;99266.78;4349816;32;33466;-67
2022/08/17 10:46:03;;;;;;;;;;;;;;;35.86;23.34;99270.44;4363346;32;34074;-67
2022/08/17 10:49:09;;;;;;;;;;;;;;;35.88;23.97;99272.84;4362977;32;34974;-71
2022/08/17 10:51:37;;;;;;;;;;;;;;;35.77;23.88;99270.22;4362749;32;34418;-83
2022/08/17 10:54:05;;;;;;;;;;;;;;;35.92;23.45;99273.56;4363084;32;33944;-73
2022/08/17 10:56:49;;;;;;;;;;;;;;;36.23;23.24;99268.53;4362827;32;35176;-66
2022/08/17 10:59:45;;;;;;;;;;;;;;;34.22;24.07;99256.88;4362853;32;34483;-73
2022/08/17 11:02:13;;;;;;;;;;;;;;;35.22;23.30;99252.63;4345961;32;34908;-67
2022/08/17 11:05:05;;;;;;;;;;;;;;;35.61;23.66;99253.16;4362770;32;34204;-78
2022/08/17 11:07:38;;;;;;;;;;;;;;;35.65;23.92;99251.09;4341761;32;34562;-72
2022/08/17 11:10:22;;;;;;;;;;;;;;;35.62;23.81;99251.94;4362834;32;34539;-81
2022/08/17 11:12:53;;;;;;;;;;;;;;;35.96;24.84;99242.44;4362589;32;35015;-67
2022/08/17 11:15:32;;;;;;;;;;;;;;;35.39;24.87;99252.75;4362687;32;33318;-78
2022/08/17 11:18:00;;;;;;;;;;;;;;;35.08;24.77;99258.50;4362824;32;34137;-68
2022/08/17 11:20:37;;;;;;;;;;;;;;;35.04;25.52;99257.75;4362737;32;34570;-66
2022/08/17 11:23:19;;;;;;;;;;;;;;;35.07;25.78;99249.22;4363255;32;34507;-80
2022/08/17 11:25:51;;;;;;;;;;;;;;;34.78;25.65;99245.28;4364723;32;33554;-67
2022/08/17 11:28:21;;;;;;;;;;;;;;;34.54;26.62;99242.38;4364296;32;34024;-66
2022/08/17 11:30:53;;;;;;;;;;;;;;;34.11;27.28;99237.28;4351061;32;34482;-66
2022/08/17 11:33:35;;;;;;;;;;;;;;;34.57;26.58;99237.91;4351328;32;34911;-80
2022/08/17 11:36:05;;;;;;;;;;;;;;;34.35;26.48;99234.59;4364527;32;33254;-66
2022/08/17 11:38:47;;;;;;;;;;;;;;;34.82;26.99;99229.13;4364432;32;34962;-69
2022/08/17 11:41:33;;;;;;;;;;;;;;;35.23;25.39;99233.69;4351118;32;34290;-68
2022/08/17 11:44:06;;;;;;;;;;;;;;;34.10;26.62;99230.03;4364553;32;34441;-66
2022/08/17 11:52:34;;;;;;;;;;;;;;;35.56;23.69;99228.28;4352768;32;35339;-67
2022/08/17 11:55:01;;;;;;;;;;;;;;;35.03;24.92;99225.91;4364386;32;34075;-73
2022/08/17 11:57:53;;;;;;;;;;;;;;;34.84;24.98;99227.47;4364198;32;33354;-69
2022/08/17 12:00:38;;;;;;;;;;;;;;;34.55;25.40;99215.00;4364298;32;35150;-66
2022/08/17 12:03:25;;;;;;;;;;;;;;;34.76;24.70;99211.88;4364209;32;34490;-69
2022/08/17 12:06:16;;;;;;;;;;;;;;;34.64;25.86;99207.63;4364506;32;34070;-67
2022/08/17 12:08:50;;;;;;;;;;;;;;;34.98;25.03;99209.50;4364290;32;33561;-67
2022/08/17 12:11:41;;;;;;;;;;;;;;;34.97;24.33;99215.56;4364426;32;34534;-80
2022/08/17 12:14:31;;;;;;;;;;;;;;;34.50;24.04;99217.06;4353107;32;35393;-71
2022/08/17 12:17:22;;;;;;;;;;;;;;;34.78;23.63;99209.44;4353210;32;34733;-67
2022/08/17 12:20:28;;;;;;;;;;;;;;;34.94;23.35;99208.75;4352958;32;32920;-66
2022/08/17 12:23:13;;;;;;;;;;;;;;;34.41;23.74;99201.94;4356234;32;35118;-68
2022/08/17 12:25:42;;;;;;;;;;;;;;;35.17;22.99;99199.56;4364034;32;34555;-66
2022/08/17 12:28:21;;;;;;;;;;;;;;;35.08;22.49;99207.75;4350814;32;34039;-66
2022/08/17 12:30:49;;;;;;;;;;;;;;;34.69;22.99;99197.91;4364074;32;34300;-80
2022/08/17 12:33:20;;;;;;;;;;;;;;;34.18;22.89;99191.38;4364304;32;34228;-70
2022/08/17 12:36:04;;;;;;;;;;;;;;;35.55;23.32;99193.59;4363990;32;34831;-82
2022/08/17 12:38:33;;;;;;;;;;;;;;;36.22;21.59;99196.34;4350886;32;34122;-68
2022/08/17 12:44:02;;;;;;;;;;;;;;;36.49;21.10;99198.94;4364285;32;34379;-66
2022/08/17 12:46:39;;;;;;;;;;;;;;;36.88;20.74;99194.41;4364105;32;35281;-73
2022/08/17 12:49:24;;;;;;;;;;;;;;;36.63;21.77;99202.69;4350904;32;34144;-71
2022/08/17 12:51:52;;;;;;;;;;;;;;;36.41;21.79;99191.06;4363938;32;33277;-67
2022/08/17 12:54:33;;;;;;;;;;;;;;;36.68;21.48;99196.53;4324164;32;856807;-75
2022/08/17 12:57:04;;;;;;;;;;;;;;;36.28;21.33;99188.13;4364028;32;34444;-77
2022/08/17 12:59:34;;;;;;;;;;;;;;;36.67;20.82;99194.91;4364096;32;34227;-69
2022/08/17 13:02:01;;;;;;;;;;;;;;;36.94;19.86;99201.13;4363909;32;33440;-67
2022/08/17 13:04:28;;;;;;;;;;;;;;;37.23;18.92;99200.41;4364259;32;34327;-67
2022/08/17 13:06:57;;;;;;;;;;;;;;;37.31;18.99;99203.84;4350562;32;34294;-66
2022/08/17 13:09:29;;;;;;;;;;;;;;;37.38;18.32;99200.81;4363730;32;34258;-69
2022/08/17 13:12:02;;;;;;;;;;;;;;;37.39;18.76;99193.13;4363624;32;33546;-77
2022/08/17 13:14:31;;;;;;;;;;;;;;;36.68;19.67;99182.41;4363761;32;34069;-67
2022/08/17 13:17:00;;;;;;;;;;;;;;;36.34;19.97;99184.34;4363778;32;35421;-66
2022/08/17 13:19:29;;;;;;;;;;;;;;;36.23;19.65;99177.34;4350346;32;34195;-78
2022/08/17 13:22:09;;;;;;;;;;;;;;;36.26;20.80;99184.94;4351576;32;34210;-70
2022/08/17 13:24:36;;;;;;;;;;;;;;;36.89;19.52;99190.34;4350679;32;34500;-66
2022/08/17 13:27:09;;;;;;;;;;;;;;;36.91;19.74;99192.72;4363754;32;34235;-77
2022/08/17 13:29:47;;;;;;;;;;;;;;;37.06;18.79;99188.28;4350510;32;34244;-67
2022/08/17 13:32:22;;;;;;;;;;;;;;;37.45;18.66;99183.63;4363744;32;34237;-82
2022/08/17 13:34:55;;;;;;;;;;;;;;;37.52;18.70;99172.13;4363787;32;33522;-70
2022/08/17 13:37:54;;;;;;;;;;;;;;;37.67;17.93;99177.41;4352403;32;33835;-66
2022/08/17 13:40:21;;;;;;;;;;;;;;;37.51;18.70;99176.19;4350378;32;35013;-68
2022/08/17 13:42:52;;;;;;;;;;;;;;;37.63;18.43;99182.41;4363739;32;33586;-76
2022/08/17 13:45:36;;;;;;;;;;;;;;;37.87;17.91;99178.03;4363039;32;34100;-68
2022/08/17 13:48:06;;;;;;;;;;;;;;;37.73;18.76;99169.97;4363655;32;35240;-69
2022/08/17 13:50:37;;;;;;;;;;;;;;;37.72;18.41;99179.69;4363491;32;34335;-67
2022/08/17 13:53:18;;;;;;;;;;;;;;;38.05;17.80;99174.69;4350130;32;33812;-67
2022/08/17 13:55:47;;;;;;;;;;;;;;;38.10;17.88;99174.16;4363671;32;34368;-67
2022/08/17 13:58:18;;;;;;;;;;;;;;;37.11;18.99;99176.47;4363355;32;34480;-68
2022/08/17 14:00:45;;;;;;;;;;;;;;;36.95;19.36;99171.59;4363626;32;34257;-83
2022/08/17 14:03:14;;;;;;;;;;;;;;;35.69;20.72;99170.78;4363423;32;34135;-71
2022/08/17 14:05:41;;;;;;;;;;;;;;;36.40;20.51;99164.84;4363592;32;34051;-73
2022/08/17 14:08:09;;;;;;;;;;;;;;;36.79;20.15;99168.78;4350266;32;34433;-81
2022/08/17 14:10:37;;;;;;;;;;;;;;;36.94;20.20;99172.06;4363310;32;34140;-80